Time;durP1;ratioP1;P1;durP2;ratioP2;P2;SDS_P1;SDS_P2;PMS_P1;PMS_P2;Temp;Humidity;BMP_temperature;BMP_pressure;BME280_temperature;BME280_humidity;BME280_pressure;Samples;Min_cycle;Max_cycle;Signal;HPM_P1;HPM_P2
2022/08/10 00:02:25;;;;;;;2.30;2.10;;;26.70;37.50;;;;;;6176769;23;20372;-85
2022/08/10 00:04:56;;;;;;;2.43;2.00;;;26.70;37.50;;;;;;6150573;23;20384;-85
2022/08/10 00:07:26;;;;;;;2.33;2.13;;;26.70;37.60;;;;;;6175055;23;20356;-83
2022/08/10 00:16:27;;;;;;;5.27;2.80;;;26.70;37.60;;;;;;6086391;23;20453;-82
2022/08/10 00:19:14;;;;;;;2.60;2.40;;;26.60;37.70;;;;;;6061937;23;20375;-82
2022/08/10 00:22:16;;;;;;;2.30;2.10;;;26.60;37.60;;;;;;6062297;23;20582;-82
2022/08/10 00:25:02;;;;;;;2.80;2.47;;;26.70;38.00;;;;;;6061631;23;20383;-85
2022/08/10 00:27:43;;;;;;;2.40;2.20;;;26.60;37.60;;;;;;6060378;23;20466;-85
2022/08/10 00:30:16;;;;;;;2.80;2.60;;;26.60;37.60;;;;;;6060955;23;20446;-82
2022/08/10 00:32:49;;;;;;;2.30;2.10;;;26.60;37.70;;;;;;6085843;23;20375;-82
2022/08/10 00:35:32;;;;;;;2.77;2.57;;;26.60;37.70;;;;;;6061229;23;20426;-85
2022/08/10 00:38:03;;;;;;;2.87;2.67;;;26.60;37.70;;;;;;6085923;23;20379;-83
2022/08/10 00:40:45;;;;;;;;;;;;;;;;;;;;;
2022/08/10 00:43:43;;;;;;;2.53;2.33;;;26.60;37.70;;;;;;6127825;23;20384;-85
2022/08/10 00:46:35;;;;;;;3.47;1.80;;;26.60;37.70;;;;;;6166428;23;20376;-85
2022/08/10 00:49:10;;;;;;;2.57;2.10;;;26.60;37.80;;;;;;6172153;23;20404;-85
2022/08/10 00:51:36;;;;;;;4.70;2.57;;;26.60;37.80;;;;;;6174647;23;20429;-85
2022/08/10 00:54:11;;;;;;;2.80;2.60;;;26.60;37.80;;;;;;6149720;23;20479;-85
2022/08/10 00:56:51;;;;;;;3.20;2.40;;;26.60;37.80;;;;;;6173545;23;20470;-85
2022/08/10 00:59:23;;;;;;;3.40;3.10;;;26.60;37.80;;;;;;6149839;23;20388;-85
2022/08/10 01:01:54;;;;;;;2.63;2.43;;;26.60;37.90;;;;;;6173665;23;20377;-85
2022/08/10 01:04:20;;;;;;;3.10;2.53;;;26.60;37.90;;;;;;6170818;23;20372;-85
2022/08/10 01:07:09;;;;;;;3.70;2.47;;;26.60;37.90;;;;;;6171556;23;20693;-85
2022/08/10 01:10:00;;;;;;;2.80;2.60;;;26.60;37.90;;;;;;6172455;23;20372;-85
2022/08/10 01:13:07;;;;;;;2.47;2.27;;;26.60;37.90;;;;;;6172147;23;20406;-85
2022/08/10 01:16:01;;;;;;;2.40;2.20;;;26.60;37.90;;;;;;6058836;23;20511;-82
2022/08/10 01:18:47;;;;;;;3.10;2.50;;;26.60;38.00;;;;;;6024993;23;20382;-82
2022/08/10 01:21:50;;;;;;;3.30;2.43;;;26.60;38.00;;;;;;6061776;23;20651;-82
2022/08/10 01:24:54;;;;;;;4.00;3.70;;;26.60;38.00;;;;;;6061342;23;20390;-82
2022/08/10 01:27:38;;;;;;;3.10;2.80;;;26.50;38.00;;;;;;6061394;23;20422;-82
2022/08/10 01:30:18;;;;;;;2.53;2.33;;;26.50;38.00;;;;;;6060979;23;20378;-82
2022/08/10 01:33:20;;;;;;;2.57;2.10;;;26.50;38.00;;;;;;6061301;23;20453;-82
2022/08/10 01:36:04;;;;;;;;;;;;;;;;;;;;;
2022/08/10 01:38:56;;;;;;;2.90;2.60;;;26.50;38.10;;;;;;6085333;23;20484;-82
2022/08/10 01:41:27;;;;;;;2.77;2.20;;;26.50;38.70;;;;;;6058382;23;20426;-82
2022/08/10 01:44:05;;;;;;;2.80;2.47;;;26.50;38.10;;;;;;6081674;23;20422;-82
2022/08/10 01:46:46;;;;;;;;;;;;;;;;;;;;;
2022/08/10 01:49:19;;;;;;;3.17;2.97;;;26.50;38.10;;;;;;6082121;23;20510;-82
2022/08/10 01:51:51;;;;;;;4.03;3.07;;;26.50;38.10;;;;;;6108445;23;20430;-82
2022/08/10 01:54:23;;;;;;;3.23;2.93;;;26.50;38.20;;;;;;6169498;23;20480;-82
2022/08/10 01:56:55;;;;;;;3.73;3.17;;;26.50;38.10;;;;;;6170460;23;20471;-81
2022/08/10 01:59:37;;;;;;;4.37;2.60;;;26.50;38.20;;;;;;6169530;23;20384;-80
2022/08/10 02:02:12;;;;;;;2.70;2.50;;;26.50;38.20;;;;;;6170082;23;20352;-81
2022/08/10 02:04:44;;;;;;;3.00;2.60;;;26.50;38.20;;;;;;6168940;23;20380;-81
2022/08/10 02:07:17;;;;;;;3.23;2.23;;;26.40;38.20;;;;;;6168029;23;20380;-80
2022/08/10 02:09:48;;;;;;;2.93;2.53;;;26.40;38.20;;;;;;6168736;23;20383;-81
2022/08/10 02:12:18;;;;;;;2.80;2.60;;;26.50;38.20;;;;;;6168745;23;20440;-81
2022/08/10 02:14:55;;;;;;;2.30;2.10;;;26.50;38.30;;;;;;6166461;23;20384;-81
2022/08/10 02:17:26;;;;;;;2.70;2.47;;;26.50;38.20;;;;;;6168482;23;20372;-80
2022/08/10 02:19:56;;;;;;;2.90;2.60;;;26.50;38.30;;;;;;6168838;23;20577;-80
2022/08/10 02:22:25;;;;;;;2.70;2.50;;;26.40;38.20;;;;;;6168036;23;20388;-82
2022/08/10 02:24:55;;;;;;;4.10;2.60;;;26.40;38.30;;;;;;6167747;23;20372;-82
2022/08/10 02:27:36;;;;;;;2.87;2.53;;;26.40;38.30;;;;;;6168076;23;20364;-80
2022/08/10 02:30:07;;;;;;;3.37;2.70;;;26.40;38.30;;;;;;6168299;23;20364;-80
2022/08/10 02:32:36;;;;;;;5.30;2.60;;;26.40;38.30;;;;;;6168139;23;20371;-80
2022/08/10 02:41:47;;;;;;;3.10;2.77;;;26.40;38.40;;;;;;6109052;23;20421;-81
2022/08/10 02:51:01;;;;;;;2.87;2.67;;;26.40;38.50;;;;;;6108044;23;20415;-81
2022/08/10 02:53:45;;;;;;;5.40;3.13;;;26.30;38.50;;;;;;6084279;23;20376;-81
2022/08/10 02:56:32;;;;;;;3.03;2.83;;;26.30;38.50;;;;;;6089556;23;20424;-83
2022/08/10 02:59:06;;;;;;;2.87;2.67;;;26.30;38.50;;;;;;6090346;23;20390;-83
2022/08/10 03:01:45;;;;;;;3.03;2.73;;;26.40;38.60;;;;;;6114861;23;20841;-83
2022/08/10 03:04:39;;;;;;;2.70;2.50;;;26.40;38.60;;;;;;6092814;23;20382;-82
2022/08/10 03:07:16;;;;;;;2.90;2.70;;;26.30;38.60;;;;;;6092334;23;20382;-83
2022/08/10 03:09:51;;;;;;;2.83;2.63;;;26.30;38.60;;;;;;6168411;23;20383;-84
2022/08/10 03:12:23;;;;;;;3.10;2.87;;;26.30;38.60;;;;;;6177105;23;20375;-84
2022/08/10 03:15:00;;;;;;;2.90;2.70;;;26.30;38.60;;;;;;6153382;23;20441;-84
2022/08/10 03:17:32;;;;;;;2.83;2.50;;;26.30;38.60;;;;;;6176476;23;20786;-84
2022/08/10 03:20:00;;;;;;;4.03;2.77;;;26.30;38.70;;;;;;6178160;23;20372;-84
2022/08/10 03:22:27;;;;;;;3.50;2.80;;;26.30;38.70;;;;;;6177613;23;20400;-83
2022/08/10 03:24:54;;;;;;;2.70;2.50;;;26.30;38.70;;;;;;6176109;23;20383;-83
2022/08/10 03:27:30;;;;;;;3.33;3.03;;;26.30;38.70;;;;;;6176146;23;20387;-83
2022/08/10 03:29:57;;;;;;;3.23;2.93;;;26.30;38.70;;;;;;6175469;23;20389;-82
2022/08/10 03:32:35;;;;;;;4.13;2.83;;;26.30;38.70;;;;;;6174871;23;20431;-83
2022/08/10 03:35:11;;;;;;;3.03;2.83;;;26.30;38.70;;;;;;6174337;23;20412;-83
2022/08/10 03:37:38;;;;;;;3.10;2.70;;;26.30;38.70;;;;;;6174536;23;20371;-83
2022/08/10 03:40:06;;;;;;;4.40;3.37;;;26.30;38.70;;;;;;6174694;23;20452;-83
2022/08/10 03:42:36;;;;;;;3.37;3.07;;;26.30;38.70;;;;;;6174739;23;20380;-83
2022/08/10 03:45:05;;;;;;;3.40;2.40;;;26.30;38.80;;;;;;6198417;23;20403;-83
2022/08/10 03:47:43;;;;;;;3.27;2.97;;;26.30;38.30;;;;;;6174273;23;20842;-82
2022/08/10 03:50:11;;;;;;;3.33;3.00;;;26.30;38.80;;;;;;6174059;23;20372;-84
2022/08/10 03:52:41;;;;;;;3.00;2.70;;;26.30;38.80;;;;;;6174552;23;20384;-82
2022/08/10 03:55:10;;;;;;;2.87;2.67;;;26.30;38.80;;;;;;6174153;23;20478;-84
2022/08/10 03:57:39;;;;;;;3.80;3.40;;;26.30;38.80;;;;;;6174465;23;20380;-83
2022/08/10 04:00:09;;;;;;;3.73;3.30;;;26.30;38.80;;;;;;6174910;23;20376;-84
2022/08/10 04:02:49;;;;;;;3.60;3.30;;;26.30;38.80;;;;;;6173672;23;20380;-83
2022/08/10 04:05:18;;;;;;;3.10;2.80;;;26.30;38.80;;;;;;6175151;23;20697;-84
2022/08/10 04:07:45;;;;;;;3.33;3.03;;;26.30;38.90;;;;;;6175609;23;20383;-84
2022/08/10 04:10:13;;;;;;;6.80;3.40;;;26.30;38.90;;;;;;6176182;23;20381;-84
2022/08/10 04:12:41;;;;;;;3.47;3.17;;;26.30;38.90;;;;;;6175534;23;20386;-83
2022/08/10 04:15:08;;;;;;;3.10;2.80;;;26.30;38.90;;;;;;6175576;23;20443;-84
2022/08/10 04:17:34;;;;;;;3.40;2.97;;;26.30;38.90;;;;;;6175291;23;20376;-83
2022/08/10 04:20:05;;;;;;;4.63;3.10;;;26.20;38.90;;;;;;6176024;23;20456;-84
2022/08/10 04:22:35;;;;;;;3.03;2.83;;;26.20;38.90;;;;;;6175539;23;20419;-83
2022/08/10 04:25:08;;;;;;;3.37;3.07;;;26.20;38.90;;;;;;6176200;23;20376;-84
2022/08/10 04:27:35;;;;;;;4.10;3.10;;;26.20;38.90;;;;;;6175387;23;20383;-83
2022/08/10 04:30:01;;;;;;;3.80;3.43;;;26.20;39.60;;;;;;6174882;23;20427;-84
2022/08/10 04:32:31;;;;;;;3.80;3.30;;;26.20;39.00;;;;;;6173990;23;20380;-84
2022/08/10 04:35:03;;;;;;;3.60;3.00;;;26.20;39.00;;;;;;6174823;23;20404;-83
2022/08/10 04:37:36;;;;;;;4.70;2.93;;;26.20;39.00;;;;;;6173561;23;20710;-84
2022/08/10 04:40:18;;;;;;;3.17;2.87;;;26.20;39.00;;;;;;6175125;23;20380;-84
2022/08/10 04:42:48;;;;;;;3.50;3.20;;;26.20;39.10;;;;;;6175330;23;20360;-84
2022/08/10 04:45:30;;;;;;;4.93;2.87;;;26.20;39.10;;;;;;6175542;23;20383;-84
2022/08/10 04:47:57;;;;;;;3.53;3.23;;;26.20;39.10;;;;;;6173300;23;20380;-84
2022/08/10 04:50:27;;;;;;;3.50;3.20;;;26.20;39.10;;;;;;6172186;23;20375;-84
2022/08/10 04:52:54;;;;;;;3.23;2.93;;;26.20;39.10;;;;;;6168592;23;20412;-84
2022/08/10 04:55:23;;;;;;;3.40;3.10;;;26.20;39.10;;;;;;6169775;23;20422;-84
2022/08/10 04:57:50;;;;;;;3.20;3.00;;;26.20;39.10;;;;;;6169501;23;20388;-84
2022/08/10 05:00:25;;;;;;;4.30;3.67;;;26.20;39.10;;;;;;6169604;23;20430;-84
2022/08/10 05:02:55;;;;;;;3.47;3.17;;;26.20;39.10;;;;;;6169775;23;20375;-84
2022/08/10 05:05:24;;;;;;;4.13;3.53;;;26.20;39.10;;;;;;6171797;23;20384;-82
2022/08/10 05:07:57;;;;;;;5.80;3.00;;;26.20;39.10;;;;;;6172973;23;20832;-83
2022/08/10 05:10:28;;;;;;;3.57;3.27;;;26.20;39.20;;;;;;6173312;23;20388;-83
2022/08/10 05:12:55;;;;;;;3.43;3.13;;;26.20;39.20;;;;;;6174082;23;20441;-84
2022/08/10 05:15:48;;;;;;;;;;;;;;;;;;;;;
2022/08/10 05:18:46;;;;;;;2.93;2.63;;;26.20;39.10;;;;;;6181207;23;20410;-81
2022/08/10 05:21:12;;;;;;;4.03;3.00;;;26.20;39.20;;;;;;6181088;23;20340;-81
2022/08/10 05:23:44;;;;;;;3.70;3.00;;;26.20;39.20;;;;;;6178973;23;20388;-78
2022/08/10 05:26:54;;;;;;;3.00;2.70;;;26.20;39.20;;;;;;6173768;23;20376;-82
2022/08/10 05:29:44;;;;;;;3.30;3.00;;;26.20;39.20;;;;;;6115168;23;20389;-83
2022/08/10 06:16:18;;;;;;;3.00;2.80;;;26.20;39.40;;;;;;5866063;24;20494;-85
2022/08/10 06:22:22;;;;;;;2.87;2.57;;;26.20;39.30;;;;;;5939887;24;20412;-84
2022/08/10 06:25:17;;;;;;;4.90;2.67;;;26.20;39.30;;;;;;5918734;24;20407;-86
2022/08/10 06:35:13;;;;;;;;;;;;;;;;;;;;;
2022/08/10 06:37:44;;;;;;;3.43;3.13;;;26.20;39.30;;;;;;5998593;24;20407;-85
2022/08/10 06:40:20;;;;;;;3.73;2.90;;;26.20;39.30;;;;;;5975347;24;20385;-86
2022/08/10 06:43:21;;;;;;;3.37;3.07;;;26.20;39.30;;;;;;5998311;24;20388;-86
2022/08/10 06:46:12;;;;;;;;;;;;;;;;;;;;;
2022/08/10 07:02:38;;;;;;;3.10;2.70;;;26.30;39.30;;;;;;6027249;23;20412;-85
2022/08/10 07:05:48;;;;;;;3.10;2.80;;;26.30;39.30;;;;;;6001498;23;20384;-86
2022/08/10 07:08:42;;;;;;;3.63;2.80;;;26.30;39.30;;;;;;5990539;23;20411;-86
2022/08/10 07:11:30;;;;;;;5.67;2.50;;;26.30;39.30;;;;;;6003656;23;20680;-85
2022/08/10 07:17:26;;;;;;;5.57;2.77;;;26.40;39.30;;;;;;6027265;23;20368;-85
2022/08/10 07:20:41;;;;;;;2.50;2.30;;;26.40;39.30;;;;;;6005542;23;20365;-85
2022/08/10 07:30:27;;;;;;;3.13;2.70;;;26.40;39.30;;;;;;6055524;23;20378;-85
2022/08/10 07:33:11;;;;;;;3.50;3.03;;;26.40;39.40;;;;;;5976210;24;20392;-85
2022/08/10 07:42:27;;;;;;;2.93;2.63;;;26.30;39.30;;;;;;6056330;23;20496;-85
2022/08/10 07:48:37;;;;;;;3.07;2.50;;;26.40;39.40;;;;;;6027825;23;20376;-86
2022/08/10 08:29:14;;;;;;;3.03;2.43;;;26.40;39.20;;;;;;5911911;24;20386;-83
2022/08/10 08:35:14;;;;;;;;;;;;;;;;;;;;;
2022/08/10 08:41:27;;;;;;;2.50;2.30;;;26.50;39.20;;;;;;5966819;24;20409;-84
2022/08/10 08:44:22;;;;;;;2.50;2.30;;;26.50;39.20;;;;;;5974915;23;20402;-83
2022/08/10 08:47:25;;;;;;;2.30;2.10;;;26.50;39.20;;;;;;6027664;23;20416;-84
2022/08/10 08:57:15;;;;;;;;;;;;;;;;;;;;;
2022/08/10 09:00:24;;;;;;;2.27;2.07;;;26.50;39.20;;;;;;6051160;23;20411;-84
2022/08/10 09:07:01;;;;;;;2.97;2.37;;;26.50;39.20;;;;;;6048003;23;20375;-83
2022/08/10 09:16:38;;;;;;;2.77;2.03;;;26.50;39.20;;;;;;5966864;23;20754;-83
2022/08/10 09:19:46;;;;;;;2.30;2.10;;;26.60;39.20;;;;;;5952337;24;20413;-83
2022/08/10 09:23:12;;;;;;;2.03;1.93;;;26.60;39.80;;;;;;5966751;24;20375;-83
2022/08/10 09:40:18;;;;;;;;;;;;;;;;;;;;;
2022/08/10 09:53:38;;;;;;;;;;;;;;;;;;;;;
2022/08/10 10:24:11;;;;;;;2.77;1.83;;;26.60;38.90;;;;;;6024021;23;20385;-83
2022/08/10 10:31:10;;;;;;;;;;;;;;;;;;;;;
2022/08/10 11:11:59;;;;;;;2.80;1.80;;;26.60;38.80;;;;;;5985684;23;20381;-83
2022/08/10 11:15:16;;;;;;;2.13;1.93;;;26.60;38.80;;;;;;5995609;24;20488;-83
2022/08/10 11:32:26;;;;;;;1.87;1.77;;;26.60;38.70;;;;;;5949762;24;20377;-84
2022/08/10 11:35:56;;;;;;;1.97;1.77;;;26.60;38.70;;;;;;5995144;24;20416;-84
2022/08/10 11:39:26;;;;;;;4.23;2.50;;;26.60;38.70;;;;;;6000476;23;20455;-84
2022/08/10 11:42:32;;;;;;;;;;;;;;;;;;;;;
2022/08/10 11:48:57;;;;;;;2.23;2.00;;;26.60;38.70;;;;;;5805434;24;20441;-84
2022/08/10 11:52:11;;;;;;;2.80;2.37;;;26.70;38.70;;;;;;5783356;24;20523;-84
2022/08/10 12:04:43;;;;;;;2.73;2.17;;;26.70;38.60;;;;;;5832037;24;20355;-84
2022/08/10 12:10:33;;;;;;;2.53;2.17;;;26.70;38.50;;;;;;5831188;24;20382;-84
2022/08/10 12:13:21;;;;;;;2.97;2.30;;;26.70;38.50;;;;;;5853819;24;20395;-84
2022/08/10 12:19:58;;;;;;;2.30;2.10;;;26.70;38.50;;;;;;5877373;24;20361;-84
2022/08/10 12:22:56;;;;;;;2.50;2.30;;;26.70;38.40;;;;;;5976119;24;20396;-83
2022/08/10 12:26:08;;;;;;;2.40;2.20;;;26.70;38.40;;;;;;5970741;24;20390;-83
2022/08/10 12:28:42;;;;;;;2.50;2.30;;;26.70;38.40;;;;;;5995364;23;20461;-83
2022/08/10 12:31:34;;;;;;;2.53;2.33;;;26.70;38.40;;;;;;5971231;24;20381;-83
2022/08/10 12:41:57;;;;;;;2.50;2.30;;;26.70;38.30;;;;;;5912247;24;20412;-82
2022/08/10 13:02:16;;;;;;;;;;;;;;;;;;;;;
2022/08/10 13:04:53;;;;;;;2.13;1.93;;;26.70;38.30;;;;;;6063894;23;20675;-83
2022/08/10 13:09:09;;;;;;;2.53;2.33;;;26.70;38.30;;;;;;6056301;23;20378;-83
2022/08/10 13:11:03;;;;;;;5.77;2.33;;;26.70;38.30;;;;;;5969611;24;20611;-84
2022/08/10 13:14:02;;;;;;;;;;;;;;;;;;;;;
2022/08/10 13:16:45;;;;;;;2.80;2.50;;;26.70;38.20;;;;;;5991798;24;20460;-84
2022/08/10 13:19:46;;;;;;;2.53;2.33;;;26.70;38.20;;;;;;5992427;24;20385;-84
2022/08/10 13:22:30;;;;;;;2.40;2.20;;;26.80;38.20;;;;;;5994476;24;20488;-83
2022/08/10 13:25:06;;;;;;;2.40;2.20;;;26.80;38.20;;;;;;5972061;24;20382;-84
2022/08/10 13:27:55;;;;;;;;;;;;;;;;;;;;;
2022/08/10 13:33:33;;;;;;;2.43;2.20;;;26.80;38.20;;;;;;5989863;23;20399;-84
2022/08/10 13:43:09;;;;;;;2.73;2.53;;;26.80;38.20;;;;;;5858117;24;20372;-84
2022/08/10 13:49:50;;;;;;;2.10;1.90;;;26.80;38.20;;;;;;5832749;24;20462;-83
2022/08/10 13:52:49;;;;;;;2.50;2.30;;;26.80;38.20;;;;;;5834444;24;20401;-83
2022/08/10 13:55:36;;;;;;;2.40;2.20;;;26.80;38.20;;;;;;5834149;24;20387;-85
2022/08/10 14:08:54;;;;;;;2.63;2.30;;;26.70;38.10;;;;;;5755590;24;20407;-84
2022/08/10 14:11:38;;;;;;;2.50;2.30;;;26.80;38.20;;;;;;5755477;24;20395;-84
2022/08/10 14:24:55;;;;;;;2.57;2.37;;;26.70;38.20;;;;;;5915953;24;20407;-83
2022/08/10 14:37:21;;;;;;;2.70;2.50;;;26.80;38.20;;;;;;5969344;24;20433;-83
2022/08/10 14:40:27;;;;;;;2.57;2.27;;;26.70;38.10;;;;;;5943702;24;20393;-84
2022/08/10 15:06:59;;;;;;;;;;;;;;;;;;;;;
2022/08/10 15:10:17;;;;;;;2.47;2.27;;;26.70;38.10;;;;;;6028950;23;20384;-86
2022/08/10 15:12:56;;;;;;;3.47;2.37;;;26.80;38.10;;;;;;6022954;23;20379;-84
2022/08/10 15:15:36;;;;;;;;;;;;;;;;;;;;;
2022/08/10 15:18:26;;;;;;;2.50;2.30;;;26.70;38.00;;;;;;6026941;23;20388;-84
2022/08/10 15:21:06;;;;;;;2.97;2.67;;;26.80;38.10;;;;;;6026749;23;20385;-84
2022/08/10 15:24:09;;;;;;;2.87;2.60;;;26.80;38.00;;;;;;6003345;23;20427;-84
2022/08/10 15:27:34;;;;;;;;;;;;;;;;;;;;;
2022/08/10 15:30:13;;;;;;;2.17;1.97;;;26.80;38.00;;;;;;6026607;23;20388;-83
2022/08/10 15:37:43;;;;;;;2.60;2.40;;;26.80;38.00;;;;;;6098894;23;20465;-85
2022/08/10 15:44:23;;;;;;;;;;;;;;;;;;;;;
2022/08/10 15:50:54;;;;;;;2.70;2.50;;;26.80;38.10;;;;;;5913137;24;20372;-82
2022/08/10 16:07:12;;;;;;;3.60;2.20;;;26.80;38.00;;;;;;5915956;24;20368;-83
2022/08/10 16:27:10;;;;;;;;;;;;;;;;;;;;;
2022/08/10 16:36:57;;;;;;;2.13;2.00;;;26.80;38.00;;;;;;5980986;23;20461;-86
2022/08/10 16:39:45;;;;;;;2.43;2.23;;;26.80;38.00;;;;;;5972197;24;20381;-85
2022/08/10 16:42:39;;;;;;;3.57;2.50;;;26.80;38.00;;;;;;5975573;24;20677;-86
2022/08/10 16:45:26;;;;;;;2.93;2.30;;;26.80;38.60;;;;;;5952098;24;20445;-86
2022/08/10 16:48:11;;;;;;;2.60;2.40;;;26.80;38.00;;;;;;5998024;23;20850;-86
2022/08/10 16:50:56;;;;;;;3.30;2.50;;;26.80;38.00;;;;;;6027462;23;20385;-86
2022/08/10 17:01:32;;;;;;;2.10;1.90;;;26.80;37.90;;;;;;6053388;23;20426;-86
2022/08/10 17:10:51;;;;;;;2.20;2.00;;;26.80;38.00;;;;;;5968516;23;20741;-85
2022/08/10 17:14:12;;;;;;;;;;;;;;;;;;;;;
2022/08/10 17:17:29;;;;;;;;;;;;;;;;;;;;;
2022/08/10 17:34:06;;;;;;;;;;;;;;;;;;;;;
2022/08/10 17:47:08;;;;;;;2.50;2.30;;;26.80;38.00;;;;;;5806670;24;20404;-86
2022/08/10 17:57:24;;;;;;;2.60;2.23;;;26.80;38.00;;;;;;5807785;24;20434;-86
2022/08/10 18:03:52;;;;;;;;;;;;;;;;;;;;;
2022/08/10 18:07:04;;;;;;;2.40;2.20;;;26.80;38.00;;;;;;5861105;24;20393;-85
2022/08/10 18:10:17;;;;;;;3.93;2.40;;;26.80;38.00;;;;;;5946447;24;20515;-85
2022/08/10 18:13:07;;;;;;;3.10;2.20;;;26.80;38.00;;;;;;5941138;24;20473;-86
2022/08/10 18:19:21;;;;;;;3.00;2.10;;;26.80;38.00;;;;;;5970489;24;20351;-85
2022/08/10 18:22:10;;;;;;;2.47;2.27;;;26.80;38.10;;;;;;5968805;24;20378;-85
2022/08/10 18:24:41;;;;;;;2.20;2.00;;;26.80;38.00;;;;;;5914446;24;20396;-86
2022/08/10 18:31:12;;;;;;;2.40;2.20;;;26.80;38.00;;;;;;5884978;24;20433;-85
2022/08/10 18:40:29;;;;;;;2.33;2.17;;;26.80;38.00;;;;;;5861680;24;20393;-85
2022/08/10 18:50:11;;;;;;;2.23;2.03;;;26.80;38.00;;;;;;5872345;24;20363;-86
2022/08/10 19:00:02;;;;;;;2.17;1.97;;;26.80;38.10;;;;;;5889117;24;20368;-85
2022/08/10 19:16:36;;;;;;;;;;;;;;;;;;;;;
2022/08/10 19:19:39;;;;;;;2.10;1.90;;;26.80;38.20;;;;;;5970705;24;20405;-84
2022/08/10 19:42:59;;;;;;;2.70;2.50;;;26.70;38.20;;;;;;6026652;23;20723;-84
2022/08/10 19:45:37;;;;;;;1.90;1.80;;;26.70;38.20;;;;;;6003451;23;20408;-84
2022/08/10 19:48:48;;;;;;;1.90;1.70;;;26.80;38.30;;;;;;6000903;23;20392;-84
2022/08/10 19:54:53;;;;;;;2.23;2.03;;;26.80;38.30;;;;;;5946803;24;20411;-84
2022/08/10 20:01:19;;;;;;;2.73;2.20;;;26.80;38.30;;;;;;5915818;24;20395;-84
2022/08/10 20:03:55;;;;;;;2.47;2.27;;;26.80;38.30;;;;;;5882738;24;20408;-84
2022/08/10 20:07:18;;;;;;;2.30;2.10;;;26.80;38.30;;;;;;5914531;24;20490;-84
2022/08/10 20:10:33;;;;;;;;;;;;;;;;;;;;;
2022/08/10 20:30:36;;;;;;;;;;;;;;;;;;;;;
2022/08/10 20:43:54;;;;;;;;;;;;;;;;;;;;;
2022/08/10 21:03:58;;;;;;;2.10;1.90;;;26.70;38.40;;;;;;5755087;25;20412;-84
2022/08/10 21:10:24;;;;;;;2.20;2.00;;;26.70;38.50;;;;;;5782448;24;20426;-84
2022/08/10 21:14:00;;;;;;;2.50;2.30;;;26.70;38.50;;;;;;5782425;24;20403;-84
2022/08/10 21:23:53;;;;;;;2.10;1.90;;;26.70;38.50;;;;;;5767453;24;20399;-83
2022/08/10 22:58:57;;;;;;;2.23;2.03;;;26.70;38.60;;;;;;6083419;23;20406;-84
2022/08/10 23:01:47;;;;;;;2.53;2.33;;;26.70;38.60;;;;;;6054905;23;20395;-84
2022/08/10 23:04:37;;;;;;;2.37;2.20;;;26.70;38.60;;;;;;6081960;23;20414;-84
2022/08/10 23:07:27;;;;;;;2.87;2.40;;;26.70;38.60;;;;;;6059378;23;20417;-84
2022/08/10 23:10:02;;;;;;;2.60;2.40;;;26.70;38.50;;;;;;6059579;23;20397;-84
2022/08/10 23:12:57;;;;;;;3.17;2.43;;;26.70;38.50;;;;;;6059900;23;20382;-84
2022/08/10 23:25:21;;;;;;;2.53;2.33;;;26.70;38.50;;;;;;6144319;23;20352;-84
2022/08/10 23:28:14;;;;;;;2.90;2.60;;;26.70;38.50;;;;;;6130694;23;20373;-84
2022/08/10 23:37:29;;;;;;;2.40;1.97;;;26.70;38.50;;;;;;6142949;23;20905;-84
2022/08/10 23:40:12;;;;;;;2.83;2.63;;;26.70;38.50;;;;;;6120801;23;20393;-84
2022/08/10 23:42:58;;;;;;;2.47;2.20;;;26.70;38.60;;;;;;6143587;23;20384;-84
2022/08/10 23:45:31;;;;;;;2.83;2.47;;;26.70;38.50;;;;;;6143904;23;20875;-84
2022/08/10 23:48:09;;;;;;;2.43;2.17;;;26.70;38.50;;;;;;6143167;23;20401;-84
2022/08/10 23:50:44;;;;;;;2.57;2.13;;;26.70;38.50;;;;;;6144618;23;20361;-84
2022/08/10 23:53:13;;;;;;;2.90;2.50;;;26.70;38.50;;;;;;6139979;23;20809;-84
2022/08/10 23:55:53;;;;;;;2.70;2.50;;;26.70;38.50;;;;;;6114582;23;20662;-84
2022/08/10 23:58:25;;;;;;;2.43;2.23;;;26.70;38.50;;;;;;6142513;23;20412;-85
